sensor_id;sensor_type;location;lat;lon;timestamp;P1;P2;P0
69350;PMS7003;57106;51.446;-2.606;2023-04-15T00:01:58;3;2;
69350;PMS7003;57106;51.446;-2.606;2023-04-15T00:04:24;5;3;
69350;PMS7003;57106;51.446;-2.606;2023-04-15T00:06:50;3;3;
69350;PMS7003;57106;51.446;-2.606;2023-04-15T00:09:15;4;3;
69350;PMS7003;57106;51.446;-2.606;2023-04-15T00:11:41;4;3;
69350;PMS7003;57106;51.446;-2.606;2023-04-15T00:14:06;4;4;
69350;PMS7003;57106;51.446;-2.606;2023-04-15T00:16:32;3;3;
69350;PMS7003;57106;51.446;-2.606;2023-04-15T00:18:58;4;4;
69350;PMS7003;57106;51.446;-2.606;2023-04-15T00:21:23;3;3;
69350;PMS7003;57106;51.446;-2.606;2023-04-15T00:23:49;6;4;
69350;PMS7003;57106;51.446;-2.606;2023-04-15T00:26:15;7;6;
69350;PMS7003;57106;51.446;-2.606;2023-04-15T00:38:29;13;13;
69350;PMS7003;57106;51.446;-2.606;2023-04-15T00:40:48;14;12;
69350;PMS7003;57106;51.446;-2.606;2023-04-15T00:43:14;8;7;
69350;PMS7003;57106;51.446;-2.606;2023-04-15T00:45:40;7;6;
69350;PMS7003;57106;51.446;-2.606;2023-04-15T00:48:06;10;8;
69350;PMS7003;57106;51.446;-2.606;2023-04-15T00:50:32;11;7;
69350;PMS7003;57106;51.446;-2.606;2023-04-15T00:52:57;12;11;
69350;PMS7003;57106;51.446;-2.606;2023-04-15T00:55:23;8;8;
69350;PMS7003;57106;51.446;-2.606;2023-04-15T00:57:49;11;11;
69350;PMS7003;57106;51.446;-2.606;2023-04-15T01:00:14;11;11;
69350;PMS7003;57106;51.446;-2.606;2023-04-15T01:02:40;8;7;
69350;PMS7003;57106;51.446;-2.606;2023-04-15T01:05:06;5;5;
69350;PMS7003;57106;51.446;-2.606;2023-04-15T01:07:32;8;7;
69350;PMS7003;57106;51.446;-2.606;2023-04-15T01:09:57;5;5;
69350;PMS7003;57106;51.446;-2.606;2023-04-15T01:12:23;5;5;
69350;PMS7003;57106;51.446;-2.606;2023-04-15T01:14:49;5;5;
69350;PMS7003;57106;51.446;-2.606;2023-04-15T01:17:14;5;4;
69350;PMS7003;57106;51.446;-2.606;2023-04-15T01:19:41;4;3;
69350;PMS7003;57106;51.446;-2.606;2023-04-15T01:22:06;3;2;
69350;PMS7003;57106;51.446;-2.606;2023-04-15T01:24:31;2;2;
69350;PMS7003;57106;51.446;-2.606;2023-04-15T01:26:57;1;1;
69350;PMS7003;57106;51.446;-2.606;2023-04-15T01:29:23;1;1;
69350;PMS7003;57106;51.446;-2.606;2023-04-15T01:31:49;2;2;
69350;PMS7003;57106;51.446;-2.606;2023-04-15T01:34:14;2;2;
69350;PMS7003;57106;51.446;-2.606;2023-04-15T01:36:40;1;1;
69350;PMS7003;57106;51.446;-2.606;2023-04-15T01:39:06;1;1;
69350;PMS7003;57106;51.446;-2.606;2023-04-15T01:41:31;1;1;
69350;PMS7003;57106;51.446;-2.606;2023-04-15T01:43:57;2;2;
69350;PMS7003;57106;51.446;-2.606;2023-04-15T01:46:23;1;1;
69350;PMS7003;57106;51.446;-2.606;2023-04-15T01:48:49;3;2;
69350;PMS7003;57106;51.446;-2.606;2023-04-15T01:51:14;1;1;
69350;PMS7003;57106;51.446;-2.606;2023-04-15T01:53:41;1;1;
69350;PMS7003;57106;51.446;-2.606;2023-04-15T01:56:06;2;2;
69350;PMS7003;57106;51.446;-2.606;2023-04-15T01:58:31;1;1;
69350;PMS7003;57106;51.446;-2.606;2023-04-15T02:00:57;2;1;
69350;PMS7003;57106;51.446;-2.606;2023-04-15T02:03:23;1;1;
69350;PMS7003;57106;51.446;-2.606;2023-04-15T02:05:49;1;1;
69350;PMS7003;57106;51.446;-2.606;2023-04-15T02:08:15;2;1;
69350;PMS7003;57106;51.446;-2.606;2023-04-15T02:13:06;2;2;
69350;PMS7003;57106;51.446;-2.606;2023-04-15T02:15:36;1;1;
69350;PMS7003;57106;51.446;-2.606;2023-04-15T02:17:57;1;1;
69350;PMS7003;57106;51.446;-2.606;2023-04-15T02:20:23;1;1;
69350;PMS7003;57106;51.446;-2.606;2023-04-15T02:22:49;0;0;
69350;PMS7003;57106;51.446;-2.606;2023-04-15T02:25:14;1;0;
69350;PMS7003;57106;51.446;-2.606;2023-04-15T02:27:40;2;2;
69350;PMS7003;57106;51.446;-2.606;2023-04-15T02:30:06;2;2;
69350;PMS7003;57106;51.446;-2.606;2023-04-15T02:32:32;1;1;
69350;PMS7003;57106;51.446;-2.606;2023-04-15T02:35:00;2;2;
69350;PMS7003;57106;51.446;-2.606;2023-04-15T02:37:23;4;2;
69350;PMS7003;57106;51.446;-2.606;2023-04-15T02:39:48;3;3;
69350;PMS7003;57106;51.446;-2.606;2023-04-15T02:42:14;3;2;
69350;PMS7003;57106;51.446;-2.606;2023-04-15T02:44:40;3;3;
69350;PMS7003;57106;51.446;-2.606;2023-04-15T02:47:06;2;2;
69350;PMS7003;57106;51.446;-2.606;2023-04-15T02:49:31;4;2;
69350;PMS7003;57106;51.446;-2.606;2023-04-15T02:51:57;2;1;
69350;PMS7003;57106;51.446;-2.606;2023-04-15T02:54:23;3;3;
69350;PMS7003;57106;51.446;-2.606;2023-04-15T02:59:14;3;3;
69350;PMS7003;57106;51.446;-2.606;2023-04-15T03:01:40;2;2;
69350;PMS7003;57106;51.446;-2.606;2023-04-15T03:04:06;2;2;
69350;PMS7003;57106;51.446;-2.606;2023-04-15T03:06:32;2;2;
69350;PMS7003;57106;51.446;-2.606;2023-04-15T03:08:57;2;2;
69350;PMS7003;57106;51.446;-2.606;2023-04-15T03:11:24;9;5;
69350;PMS7003;57106;51.446;-2.606;2023-04-15T03:13:49;4;3;
69350;PMS7003;57106;51.446;-2.606;2023-04-15T03:16:14;3;2;
69350;PMS7003;57106;51.446;-2.606;2023-04-15T03:18:40;3;1;
69350;PMS7003;57106;51.446;-2.606;2023-04-15T03:21:06;4;3;
69350;PMS7003;57106;51.446;-2.606;2023-04-15T03:23:32;3;2;
69350;PMS7003;57106;51.446;-2.606;2023-04-15T03:26:00;3;3;
69350;PMS7003;57106;51.446;-2.606;2023-04-15T03:28:23;3;2;
69350;PMS7003;57106;51.446;-2.606;2023-04-15T03:30:49;2;2;
69350;PMS7003;57106;51.446;-2.606;2023-04-15T03:33:15;3;2;
69350;PMS7003;57106;51.446;-2.606;2023-04-15T03:35:40;1;1;
69350;PMS7003;57106;51.446;-2.606;2023-04-15T03:38:06;3;3;
69350;PMS7003;57106;51.446;-2.606;2023-04-15T03:40:32;5;3;
69350;PMS7003;57106;51.446;-2.606;2023-04-15T03:42:58;2;2;
69350;PMS7003;57106;51.446;-2.606;2023-04-15T03:57:33;2;2;
69350;PMS7003;57106;51.446;-2.606;2023-04-15T03:59:57;3;2;
69350;PMS7003;57106;51.446;-2.606;2023-04-15T04:02:23;5;2;
69350;PMS7003;57106;51.446;-2.606;2023-04-15T04:04:49;5;3;
69350;PMS7003;57106;51.446;-2.606;2023-04-15T04:07:15;2;2;
69350;PMS7003;57106;51.446;-2.606;2023-04-15T04:09:41;2;2;
69350;PMS7003;57106;51.446;-2.606;2023-04-15T04:12:06;2;2;
69350;PMS7003;57106;51.446;-2.606;2023-04-15T04:14:32;3;3;
69350;PMS7003;57106;51.446;-2.606;2023-04-15T04:16:57;2;2;
69350;PMS7003;57106;51.446;-2.606;2023-04-15T04:19:23;1;1;
69350;PMS7003;57106;51.446;-2.606;2023-04-15T04:21:50;3;3;
69350;PMS7003;57106;51.446;-2.606;2023-04-15T04:24:14;2;1;
69350;PMS7003;57106;51.446;-2.606;2023-04-15T04:26:41;2;2;
69350;PMS7003;57106;51.446;-2.606;2023-04-15T04:29:06;4;4;
69350;PMS7003;57106;51.446;-2.606;2023-04-15T04:31:32;2;2;
69350;PMS7003;57106;51.446;-2.606;2023-04-15T04:33:58;2;2;
69350;PMS7003;57106;51.446;-2.606;2023-04-15T04:36:23;2;2;
69350;PMS7003;57106;51.446;-2.606;2023-04-15T04:38:49;4;2;
69350;PMS7003;57106;51.446;-2.606;2023-04-15T04:41:15;4;4;
69350;PMS7003;57106;51.446;-2.606;2023-04-15T04:43:41;3;3;
69350;PMS7003;57106;51.446;-2.606;2023-04-15T04:46:06;3;3;
69350;PMS7003;57106;51.446;-2.606;2023-04-15T04:48:32;2;2;
69350;PMS7003;57106;51.446;-2.606;2023-04-15T04:50:58;2;2;
69350;PMS7003;57106;51.446;-2.606;2023-04-15T04:53:24;2;2;
69350;PMS7003;57106;51.446;-2.606;2023-04-15T04:55:50;2;2;
69350;PMS7003;57106;51.446;-2.606;2023-04-15T04:58:17;3;3;
69350;PMS7003;57106;51.446;-2.606;2023-04-15T05:00:41;4;3;
69350;PMS7003;57106;51.446;-2.606;2023-04-15T05:03:09;3;3;
69350;PMS7003;57106;51.446;-2.606;2023-04-15T05:05:32;3;3;
69350;PMS7003;57106;51.446;-2.606;2023-04-15T05:07:58;3;3;
69350;PMS7003;57106;51.446;-2.606;2023-04-15T05:10:24;2;2;
69350;PMS7003;57106;51.446;-2.606;2023-04-15T05:12:51;2;2;
69350;PMS7003;57106;51.446;-2.606;2023-04-15T05:15:15;3;2;
69350;PMS7003;57106;51.446;-2.606;2023-04-15T05:17:41;3;3;
69350;PMS7003;57106;51.446;-2.606;2023-04-15T05:20:08;3;3;
69350;PMS7003;57106;51.446;-2.606;2023-04-15T05:32:16;3;3;
69350;PMS7003;57106;51.446;-2.606;2023-04-15T05:34:42;3;3;
69350;PMS7003;57106;51.446;-2.606;2023-04-15T05:37:07;3;3;
69350;PMS7003;57106;51.446;-2.606;2023-04-15T05:39:35;2;2;
69350;PMS7003;57106;51.446;-2.606;2023-04-15T05:41:59;2;2;
69350;PMS7003;57106;51.446;-2.606;2023-04-15T05:44:25;2;2;
69350;PMS7003;57106;51.446;-2.606;2023-04-15T05:46:50;5;2;
69350;PMS7003;57106;51.446;-2.606;2023-04-15T05:49:16;3;3;
69350;PMS7003;57106;51.446;-2.606;2023-04-15T05:51:53;3;3;
69350;PMS7003;57106;51.446;-2.606;2023-04-15T05:54:08;2;2;
69350;PMS7003;57106;51.446;-2.606;2023-04-15T05:56:38;3;3;
69350;PMS7003;57106;51.446;-2.606;2023-04-15T05:58:59;7;4;
69350;PMS7003;57106;51.446;-2.606;2023-04-15T06:01:25;3;3;
69350;PMS7003;57106;51.446;-2.606;2023-04-15T06:03:51;6;6;
69350;PMS7003;57106;51.446;-2.606;2023-04-15T06:06:16;7;5;
69350;PMS7003;57106;51.446;-2.606;2023-04-15T06:08:42;7;6;
69350;PMS7003;57106;51.446;-2.606;2023-04-15T06:11:09;5;5;
69350;PMS7003;57106;51.446;-2.606;2023-04-15T06:13:35;7;7;
69350;PMS7003;57106;51.446;-2.606;2023-04-15T06:15:59;10;7;
69350;PMS7003;57106;51.446;-2.606;2023-04-15T06:18:26;9;7;
69350;PMS7003;57106;51.446;-2.606;2023-04-15T06:20:51;8;8;
69350;PMS7003;57106;51.446;-2.606;2023-04-15T06:23:16;8;7;
69350;PMS7003;57106;51.446;-2.606;2023-04-15T06:25:42;7;5;
69350;PMS7003;57106;51.446;-2.606;2023-04-15T06:28:08;7;7;
69350;PMS7003;57106;51.446;-2.606;2023-04-15T06:30:34;11;11;
69350;PMS7003;57106;51.446;-2.606;2023-04-15T06:32:59;9;7;
69350;PMS7003;57106;51.446;-2.606;2023-04-15T06:35:26;8;8;
69350;PMS7003;57106;51.446;-2.606;2023-04-15T06:37:51;7;7;
69350;PMS7003;57106;51.446;-2.606;2023-04-15T06:40:16;8;7;
69350;PMS7003;57106;51.446;-2.606;2023-04-15T06:42:42;8;7;
69350;PMS7003;57106;51.446;-2.606;2023-04-15T06:45:09;6;6;
69350;PMS7003;57106;51.446;-2.606;2023-04-15T06:47:34;6;5;
69350;PMS7003;57106;51.446;-2.606;2023-04-15T06:50:00;6;6;
69350;PMS7003;57106;51.446;-2.606;2023-04-15T06:52:25;10;8;
69350;PMS7003;57106;51.446;-2.606;2023-04-15T06:54:51;6;6;
69350;PMS7003;57106;51.446;-2.606;2023-04-15T06:57:16;7;6;
69350;PMS7003;57106;51.446;-2.606;2023-04-15T07:11:50;4;4;
69350;PMS7003;57106;51.446;-2.606;2023-04-15T07:14:16;4;4;
69350;PMS7003;57106;51.446;-2.606;2023-04-15T07:16:41;3;3;
69350;PMS7003;57106;51.446;-2.606;2023-04-15T07:19:07;5;5;
69350;PMS7003;57106;51.446;-2.606;2023-04-15T07:21:33;4;3;
69350;PMS7003;57106;51.446;-2.606;2023-04-15T07:23:58;4;4;
69350;PMS7003;57106;51.446;-2.606;2023-04-15T07:26:24;4;4;
69350;PMS7003;57106;51.446;-2.606;2023-04-15T07:28:49;3;3;
69350;PMS7003;57106;51.446;-2.606;2023-04-15T07:31:16;4;4;
69350;PMS7003;57106;51.446;-2.606;2023-04-15T07:33:41;4;3;
69350;PMS7003;57106;51.446;-2.606;2023-04-15T07:36:07;4;4;
69350;PMS7003;57106;51.446;-2.606;2023-04-15T07:38:32;3;3;
69350;PMS7003;57106;51.446;-2.606;2023-04-15T07:40:58;2;2;
69350;PMS7003;57106;51.446;-2.606;2023-04-15T07:43:23;4;3;
69350;PMS7003;57106;51.446;-2.606;2023-04-15T07:45:49;7;5;
69350;PMS7003;57106;51.446;-2.606;2023-04-15T07:48:15;6;4;
69350;PMS7003;57106;51.446;-2.606;2023-04-15T07:50:40;5;5;
69350;PMS7003;57106;51.446;-2.606;2023-04-15T07:53:06;4;4;
69350;PMS7003;57106;51.446;-2.606;2023-04-15T07:55:31;3;3;
69350;PMS7003;57106;51.446;-2.606;2023-04-15T08:00:23;2;2;
69350;PMS7003;57106;51.446;-2.606;2023-04-15T08:02:48;2;2;
69350;PMS7003;57106;51.446;-2.606;2023-04-15T08:05:15;2;2;
69350;PMS7003;57106;51.446;-2.606;2023-04-15T08:07:39;5;3;
69350;PMS7003;57106;51.446;-2.606;2023-04-15T08:10:05;2;1;
69350;PMS7003;57106;51.446;-2.606;2023-04-15T08:12:31;1;1;
69350;PMS7003;57106;51.446;-2.606;2023-04-15T08:14:56;2;2;
69350;PMS7003;57106;51.446;-2.606;2023-04-15T08:17:22;2;1;
69350;PMS7003;57106;51.446;-2.606;2023-04-15T08:19:48;1;1;
69350;PMS7003;57106;51.446;-2.606;2023-04-15T08:22:13;3;2;
69350;PMS7003;57106;51.446;-2.606;2023-04-15T08:24:39;3;3;
69350;PMS7003;57106;51.446;-2.606;2023-04-15T08:27:04;2;2;
69350;PMS7003;57106;51.446;-2.606;2023-04-15T08:29:30;3;1;
69350;PMS7003;57106;51.446;-2.606;2023-04-15T08:31:56;2;2;
69350;PMS7003;57106;51.446;-2.606;2023-04-15T08:34:22;2;2;
69350;PMS7003;57106;51.446;-2.606;2023-04-15T08:36:47;2;2;
69350;PMS7003;57106;51.446;-2.606;2023-04-15T08:48:57;4;2;
69350;PMS7003;57106;51.446;-2.606;2023-04-15T08:51:21;3;2;
69350;PMS7003;57106;51.446;-2.606;2023-04-15T08:53:46;2;2;
69350;PMS7003;57106;51.446;-2.606;2023-04-15T08:56:13;4;3;
69350;PMS7003;57106;51.446;-2.606;2023-04-15T08:58:37;2;2;
69350;PMS7003;57106;51.446;-2.606;2023-04-15T09:03:29;2;2;
69350;PMS7003;57106;51.446;-2.606;2023-04-15T09:05:54;2;2;
69350;PMS7003;57106;51.446;-2.606;2023-04-15T09:10:46;2;2;
69350;PMS7003;57106;51.446;-2.606;2023-04-15T09:13:11;4;3;
69350;PMS7003;57106;51.446;-2.606;2023-04-15T09:15:37;3;2;
69350;PMS7003;57106;51.446;-2.606;2023-04-15T09:18:02;2;2;
69350;PMS7003;57106;51.446;-2.606;2023-04-15T09:20:28;2;2;
69350;PMS7003;57106;51.446;-2.606;2023-04-15T09:22:54;2;2;
69350;PMS7003;57106;51.446;-2.606;2023-04-15T09:25:25;4;2;
69350;PMS7003;57106;51.446;-2.606;2023-04-15T09:27:47;3;3;
69350;PMS7003;57106;51.446;-2.606;2023-04-15T09:30:10;4;1;
69350;PMS7003;57106;51.446;-2.606;2023-04-15T09:32:36;2;2;
69350;PMS7003;57106;51.446;-2.606;2023-04-15T09:39:53;2;2;
69350;PMS7003;57106;51.446;-2.606;2023-04-15T09:42:19;3;3;
69350;PMS7003;57106;51.446;-2.606;2023-04-15T09:44:44;3;2;
69350;PMS7003;57106;51.446;-2.606;2023-04-15T09:49:35;3;3;
69350;PMS7003;57106;51.446;-2.606;2023-04-15T09:52:01;3;2;
69350;PMS7003;57106;51.446;-2.606;2023-04-15T09:56:52;3;2;
69350;PMS7003;57106;51.446;-2.606;2023-04-15T09:59:17;3;2;
69350;PMS7003;57106;51.446;-2.606;2023-04-15T10:01:43;1;1;
69350;PMS7003;57106;51.446;-2.606;2023-04-15T10:04:09;3;2;
69350;PMS7003;57106;51.446;-2.606;2023-04-15T10:06:34;3;2;
69350;PMS7003;57106;51.446;-2.606;2023-04-15T10:09:00;2;2;
69350;PMS7003;57106;51.446;-2.606;2023-04-15T10:11:27;4;2;
69350;PMS7003;57106;51.446;-2.606;2023-04-15T10:13:51;3;2;
69350;PMS7003;57106;51.446;-2.606;2023-04-15T10:33:16;1;1;
69350;PMS7003;57106;51.446;-2.606;2023-04-15T10:35:41;2;1;
69350;PMS7003;57106;51.446;-2.606;2023-04-15T10:40:32;1;1;
69350;PMS7003;57106;51.446;-2.606;2023-04-15T10:42:58;2;2;
69350;PMS7003;57106;51.446;-2.606;2023-04-15T10:45:24;2;2;
69350;PMS7003;57106;51.446;-2.606;2023-04-15T10:47:56;1;1;
69350;PMS7003;57106;51.446;-2.606;2023-04-15T10:50:15;2;2;
69350;PMS7003;57106;51.446;-2.606;2023-04-15T10:52:39;3;2;
69350;PMS7003;57106;51.446;-2.606;2023-04-15T10:57:33;2;2;
69350;PMS7003;57106;51.446;-2.606;2023-04-15T11:12:04;2;0;
69350;PMS7003;57106;51.446;-2.606;2023-04-15T11:14:29;5;2;
69350;PMS7003;57106;51.446;-2.606;2023-04-15T11:16:59;3;2;
69350;PMS7003;57106;51.446;-2.606;2023-04-15T11:21:46;3;1;
69350;PMS7003;57106;51.446;-2.606;2023-04-15T11:26:37;2;2;
69350;PMS7003;57106;51.446;-2.606;2023-04-15T11:29:02;2;1;
69350;PMS7003;57106;51.446;-2.606;2023-04-15T11:31:28;2;2;
69350;PMS7003;57106;51.446;-2.606;2023-04-15T11:33:54;4;3;
69350;PMS7003;57106;51.446;-2.606;2023-04-15T11:36:19;1;1;
69350;PMS7003;57106;51.446;-2.606;2023-04-15T11:38:46;2;2;
69350;PMS7003;57106;51.446;-2.606;2023-04-15T11:41:10;2;2;
69350;PMS7003;57106;51.446;-2.606;2023-04-15T11:43:35;3;3;
69350;PMS7003;57106;51.446;-2.606;2023-04-15T11:46:01;2;2;
69350;PMS7003;57106;51.446;-2.606;2023-04-15T11:48:27;4;3;
69350;PMS7003;57106;51.446;-2.606;2023-04-15T11:50:53;3;3;
69350;PMS7003;57106;51.446;-2.606;2023-04-15T12:00:37;5;4;
69350;PMS7003;57106;51.446;-2.606;2023-04-15T12:05:25;2;2;
69350;PMS7003;57106;51.446;-2.606;2023-04-15T12:07:56;3;3;
69350;PMS7003;57106;51.446;-2.606;2023-04-15T12:10:16;4;2;
69350;PMS7003;57106;51.446;-2.606;2023-04-15T12:12:42;4;2;
69350;PMS7003;57106;51.446;-2.606;2023-04-15T12:15:08;1;1;
69350;PMS7003;57106;51.446;-2.606;2023-04-15T12:17:33;1;1;
69350;PMS7003;57106;51.446;-2.606;2023-04-15T12:19:58;3;3;
69350;PMS7003;57106;51.446;-2.606;2023-04-15T12:22:23;3;3;
69350;PMS7003;57106;51.446;-2.606;2023-04-15T12:24:53;1;1;
69350;PMS7003;57106;51.446;-2.606;2023-04-15T12:27:19;0;0;
69350;PMS7003;57106;51.446;-2.606;2023-04-15T12:29:40;2;2;
69350;PMS7003;57106;51.446;-2.606;2023-04-15T12:32:06;2;2;
69350;PMS7003;57106;51.446;-2.606;2023-04-15T12:34:32;2;2;
69350;PMS7003;57106;51.446;-2.606;2023-04-15T12:37:03;1;1;
69350;PMS7003;57106;51.446;-2.606;2023-04-15T12:39:22;1;1;
69350;PMS7003;57106;51.446;-2.606;2023-04-15T12:46:39;1;1;
69350;PMS7003;57106;51.446;-2.606;2023-04-15T12:49:05;1;0;
69350;PMS7003;57106;51.446;-2.606;2023-04-15T12:51:30;6;4;
69350;PMS7003;57106;51.446;-2.606;2023-04-15T12:53:55;2;2;
69350;PMS7003;57106;51.446;-2.606;2023-04-15T12:56:21;2;2;
69350;PMS7003;57106;51.446;-2.606;2023-04-15T12:58:46;3;3;
69350;PMS7003;57106;51.446;-2.606;2023-04-15T13:01:11;2;2;
69350;PMS7003;57106;51.446;-2.606;2023-04-15T13:03:37;2;2;
69350;PMS7003;57106;51.446;-2.606;2023-04-15T13:52:08;1;1;
69350;PMS7003;57106;51.446;-2.606;2023-04-15T13:54:33;0;0;
69350;PMS7003;57106;51.446;-2.606;2023-04-15T14:33:20;2;2;
69350;PMS7003;57106;51.446;-2.606;2023-04-15T14:35:48;2;2;
69350;PMS7003;57106;51.446;-2.606;2023-04-15T14:38:11;3;2;
69350;PMS7003;57106;51.446;-2.606;2023-04-15T14:40:36;0;0;
69350;PMS7003;57106;51.446;-2.606;2023-04-15T14:43:02;1;1;
69350;PMS7003;57106;51.446;-2.606;2023-04-15T14:45:28;2;2;
69350;PMS7003;57106;51.446;-2.606;2023-04-15T14:47:54;2;2;
69350;PMS7003;57106;51.446;-2.606;2023-04-15T14:50:18;3;2;
69350;PMS7003;57106;51.446;-2.606;2023-04-15T14:52:44;3;3;
69350;PMS7003;57106;51.446;-2.606;2023-04-15T14:55:10;3;3;
69350;PMS7003;57106;51.446;-2.606;2023-04-15T14:57:35;2;2;
69350;PMS7003;57106;51.446;-2.606;2023-04-15T15:00:01;2;2;
69350;PMS7003;57106;51.446;-2.606;2023-04-15T15:02:26;1;1;
69350;PMS7003;57106;51.446;-2.606;2023-04-15T15:04:51;2;2;
69350;PMS7003;57106;51.446;-2.606;2023-04-15T15:07:19;0;0;
69350;PMS7003;57106;51.446;-2.606;2023-04-15T15:09:42;3;3;
69350;PMS7003;57106;51.446;-2.606;2023-04-15T15:12:08;1;1;
69350;PMS7003;57106;51.446;-2.606;2023-04-15T15:14:33;2;1;
69350;PMS7003;57106;51.446;-2.606;2023-04-15T15:24:22;2;2;
69350;PMS7003;57106;51.446;-2.606;2023-04-15T15:26:45;3;2;
69350;PMS7003;57106;51.446;-2.606;2023-04-15T15:29:06;1;1;
69350;PMS7003;57106;51.446;-2.606;2023-04-15T15:33:57;1;1;
69350;PMS7003;57106;51.446;-2.606;2023-04-15T15:36:22;2;2;
69350;PMS7003;57106;51.446;-2.606;2023-04-15T15:38:48;3;2;
69350;PMS7003;57106;51.446;-2.606;2023-04-15T15:41:13;1;1;
69350;PMS7003;57106;51.446;-2.606;2023-04-15T15:43:39;4;2;
69350;PMS7003;57106;51.446;-2.606;2023-04-15T15:46:04;3;1;
69350;PMS7003;57106;51.446;-2.606;2023-04-15T15:48:30;3;2;
69350;PMS7003;57106;51.446;-2.606;2023-04-15T15:50:55;1;1;
69350;PMS7003;57106;51.446;-2.606;2023-04-15T15:53:21;1;1;
69350;PMS7003;57106;51.446;-2.606;2023-04-15T15:55:46;2;2;
69350;PMS7003;57106;51.446;-2.606;2023-04-15T15:58:11;1;1;
69350;PMS7003;57106;51.446;-2.606;2023-04-15T16:00:37;1;1;
69350;PMS7003;57106;51.446;-2.606;2023-04-15T16:03:02;2;2;
69350;PMS7003;57106;51.446;-2.606;2023-04-15T16:05:28;2;1;
69350;PMS7003;57106;51.446;-2.606;2023-04-15T16:07:53;1;1;
69350;PMS7003;57106;51.446;-2.606;2023-04-15T16:10:19;1;1;
69350;PMS7003;57106;51.446;-2.606;2023-04-15T16:12:45;1;1;
69350;PMS7003;57106;51.446;-2.606;2023-04-15T16:22:26;1;1;
69350;PMS7003;57106;51.446;-2.606;2023-04-15T16:27:17;3;3;
69350;PMS7003;57106;51.446;-2.606;2023-04-15T16:36:59;1;1;
69350;PMS7003;57106;51.446;-2.606;2023-04-15T16:39:24;1;0;
69350;PMS7003;57106;51.446;-2.606;2023-04-15T16:41:50;1;1;
69350;PMS7003;57106;51.446;-2.606;2023-04-15T16:44:15;1;1;
69350;PMS7003;57106;51.446;-2.606;2023-04-15T16:46:40;2;2;
69350;PMS7003;57106;51.446;-2.606;2023-04-15T16:56:22;0;0;
69350;PMS7003;57106;51.446;-2.606;2023-04-15T17:15:45;2;2;
69350;PMS7003;57106;51.446;-2.606;2023-04-15T17:20:37;1;1;
69350;PMS7003;57106;51.446;-2.606;2023-04-15T17:23:05;0;0;
69350;PMS7003;57106;51.446;-2.606;2023-04-15T17:25:27;2;2;
69350;PMS7003;57106;51.446;-2.606;2023-04-15T17:27:52;2;2;
69350;PMS7003;57106;51.446;-2.606;2023-04-15T17:30:18;2;1;
69350;PMS7003;57106;51.446;-2.606;2023-04-15T17:32:49;1;1;
69350;PMS7003;57106;51.446;-2.606;2023-04-15T17:35:09;1;1;
69350;PMS7003;57106;51.446;-2.606;2023-04-15T17:37:34;1;1;
69350;PMS7003;57106;51.446;-2.606;2023-04-15T17:40:00;3;2;
69350;PMS7003;57106;51.446;-2.606;2023-04-15T17:42:25;1;1;
69350;PMS7003;57106;51.446;-2.606;2023-04-15T17:52:17;0;0;
69350;PMS7003;57106;51.446;-2.606;2023-04-15T17:54:32;3;1;
69350;PMS7003;57106;51.446;-2.606;2023-04-15T17:56:58;1;1;
69350;PMS7003;57106;51.446;-2.606;2023-04-15T17:59:24;3;2;
69350;PMS7003;57106;51.446;-2.606;2023-04-15T18:01:49;1;1;
69350;PMS7003;57106;51.446;-2.606;2023-04-15T18:04:19;2;2;
69350;PMS7003;57106;51.446;-2.606;2023-04-15T18:06:40;5;2;
69350;PMS7003;57106;51.446;-2.606;2023-04-15T18:09:05;3;3;
69350;PMS7003;57106;51.446;-2.606;2023-04-15T18:11:31;3;3;
69350;PMS7003;57106;51.446;-2.606;2023-04-15T18:13:56;3;3;
69350;PMS7003;57106;51.446;-2.606;2023-04-15T18:16:21;2;2;
69350;PMS7003;57106;51.446;-2.606;2023-04-15T18:18:47;1;1;
69350;PMS7003;57106;51.446;-2.606;2023-04-15T18:21:12;2;2;
69350;PMS7003;57106;51.446;-2.606;2023-04-15T18:23:38;2;2;
69350;PMS7003;57106;51.446;-2.606;2023-04-15T18:26:03;3;3;
69350;PMS7003;57106;51.446;-2.606;2023-04-15T18:28:29;2;1;
69350;PMS7003;57106;51.446;-2.606;2023-04-15T18:30:54;3;3;
69350;PMS7003;57106;51.446;-2.606;2023-04-15T18:33:21;4;2;
69350;PMS7003;57106;51.446;-2.606;2023-04-15T18:35:50;3;3;
69350;PMS7003;57106;51.446;-2.606;2023-04-15T18:52:59;3;3;
69350;PMS7003;57106;51.446;-2.606;2023-04-15T18:55:09;3;3;
69350;PMS7003;57106;51.446;-2.606;2023-04-15T19:00:01;3;2;
69350;PMS7003;57106;51.446;-2.606;2023-04-15T19:02:26;3;3;
69350;PMS7003;57106;51.446;-2.606;2023-04-15T19:04:52;5;3;
69350;PMS7003;57106;51.446;-2.606;2023-04-15T19:07:17;3;3;
69350;PMS7003;57106;51.446;-2.606;2023-04-15T19:09:42;4;4;
69350;PMS7003;57106;51.446;-2.606;2023-04-15T19:12:08;10;8;
69350;PMS7003;57106;51.446;-2.606;2023-04-15T19:14:34;7;7;
69350;PMS7003;57106;51.446;-2.606;2023-04-15T19:16:59;8;7;
69350;PMS7003;57106;51.446;-2.606;2023-04-15T19:19:26;5;5;
69350;PMS7003;57106;51.446;-2.606;2023-04-15T19:21:55;6;5;
69350;PMS7003;57106;51.446;-2.606;2023-04-15T19:24:15;9;9;
69350;PMS7003;57106;51.446;-2.606;2023-04-15T19:26:47;8;8;
69350;PMS7003;57106;51.446;-2.606;2023-04-15T19:29:07;8;7;
69350;PMS7003;57106;51.446;-2.606;2023-04-15T19:31:32;5;5;
69350;PMS7003;57106;51.446;-2.606;2023-04-15T19:33:57;13;11;
69350;PMS7003;57106;51.446;-2.606;2023-04-15T19:36:23;17;17;
69350;PMS7003;57106;51.446;-2.606;2023-04-15T19:38:48;17;14;
69350;PMS7003;57106;51.446;-2.606;2023-04-15T19:41:14;9;9;
69350;PMS7003;57106;51.446;-2.606;2023-04-15T19:43:39;8;8;
69350;PMS7003;57106;51.446;-2.606;2023-04-15T19:46:05;8;8;
69350;PMS7003;57106;51.446;-2.606;2023-04-15T19:48:30;10;6;
69350;PMS7003;57106;51.446;-2.606;2023-04-15T19:50:57;5;5;
69350;PMS7003;57106;51.446;-2.606;2023-04-15T19:53:21;6;5;
69350;PMS7003;57106;51.446;-2.606;2023-04-15T19:55:47;8;7;
69350;PMS7003;57106;51.446;-2.606;2023-04-15T19:58:12;7;7;
69350;PMS7003;57106;51.446;-2.606;2023-04-15T20:00:39;9;7;
69350;PMS7003;57106;51.446;-2.606;2023-04-15T20:03:03;6;5;
69350;PMS7003;57106;51.446;-2.606;2023-04-15T20:05:29;7;5;
69350;PMS7003;57106;51.446;-2.606;2023-04-15T20:07:56;8;6;
69350;PMS7003;57106;51.446;-2.606;2023-04-15T20:10:25;8;7;
69350;PMS7003;57106;51.446;-2.606;2023-04-15T20:12:46;7;7;
69350;PMS7003;57106;51.446;-2.606;2023-04-15T20:15:11;7;7;
69350;PMS7003;57106;51.446;-2.606;2023-04-15T20:17:37;15;14;
69350;PMS7003;57106;51.446;-2.606;2023-04-15T20:49:12;10;10;
69350;PMS7003;57106;51.446;-2.606;2023-04-15T20:51:34;19;17;
69350;PMS7003;57106;51.446;-2.606;2023-04-15T20:54:00;99;88;
69350;PMS7003;57106;51.446;-2.606;2023-04-15T20:56:25;67;59;
69350;PMS7003;57106;51.446;-2.606;2023-04-15T20:58:56;19;18;
69350;PMS7003;57106;51.446;-2.606;2023-04-15T21:01:16;9;8;
69350;PMS7003;57106;51.446;-2.606;2023-04-15T21:03:42;6;6;
69350;PMS7003;57106;51.446;-2.606;2023-04-15T21:06:07;7;7;
69350;PMS7003;57106;51.446;-2.606;2023-04-15T21:08:33;8;7;
69350;PMS7003;57106;51.446;-2.606;2023-04-15T21:10:58;11;11;
69350;PMS7003;57106;51.446;-2.606;2023-04-15T21:13:25;6;6;
69350;PMS7003;57106;51.446;-2.606;2023-04-15T21:15:49;10;10;
69350;PMS7003;57106;51.446;-2.606;2023-04-15T21:18:14;14;13;
69350;PMS7003;57106;51.446;-2.606;2023-04-15T21:20:40;23;23;
69350;PMS7003;57106;51.446;-2.606;2023-04-15T21:23:07;23;22;
69350;PMS7003;57106;51.446;-2.606;2023-04-15T21:25:33;19;16;
69350;PMS7003;57106;51.446;-2.606;2023-04-15T21:27:57;16;16;
69350;PMS7003;57106;51.446;-2.606;2023-04-15T21:30:22;12;12;
69350;PMS7003;57106;51.446;-2.606;2023-04-15T21:32:48;14;13;
69350;PMS7003;57106;51.446;-2.606;2023-04-15T21:35:13;11;11;
69350;PMS7003;57106;51.446;-2.606;2023-04-15T21:37:44;12;12;